sensor_id;sensor_type;location;lat;lon;timestamp;P1;durP1;ratioP1;P2;durP2;ratioP2
33246;SDS011;19606;50.108;19.804;2022-09-09T00:01:57;19.20;;;13.45;;
33246;SDS011;19606;50.108;19.804;2022-09-09T00:09:32;17.08;;;13.95;;
33246;SDS011;19606;50.108;19.804;2022-09-09T00:17:09;17.00;;;12.80;;
33246;SDS011;19606;50.108;19.804;2022-09-09T00:19:52;13.40;;;8.70;;
33246;SDS011;19606;50.108;19.804;2022-09-09T00:22:24;17.70;;;12.30;;
33246;SDS011;19606;50.108;19.804;2022-09-09T00:24:54;16.00;;;12.05;;
33246;SDS011;19606;50.108;19.804;2022-09-09T00:30:16;16.73;;;12.95;;
33246;SDS011;19606;50.108;19.804;2022-09-09T00:32:44;14.95;;;12.48;;
33246;SDS011;19606;50.108;19.804;2022-09-09T00:35:16;14.90;;;10.07;;
33246;SDS011;19606;50.108;19.804;2022-09-09T00:37:47;17.55;;;12.90;;
33246;SDS011;19606;50.108;19.804;2022-09-09T00:42:51;16.48;;;12.25;;
33246;SDS011;19606;50.108;19.804;2022-09-09T00:47:52;16.50;;;12.95;;
33246;SDS011;19606;50.108;19.804;2022-09-09T00:58:06;23.30;;;14.88;;
33246;SDS011;19606;50.108;19.804;2022-09-09T01:06:11;21.98;;;16.20;;
33246;SDS011;19606;50.108;19.804;2022-09-09T01:11:10;22.63;;;16.38;;
33246;SDS011;19606;50.108;19.804;2022-09-09T01:13:38;20.60;;;15.77;;
33246;SDS011;19606;50.108;19.804;2022-09-09T01:16:06;25.17;;;17.13;;
33246;SDS011;19606;50.108;19.804;2022-09-09T01:18:38;24.48;;;16.23;;
33246;SDS011;19606;50.108;19.804;2022-09-09T01:24:04;23.38;;;16.77;;
33246;SDS011;19606;50.108;19.804;2022-09-09T01:26:37;25.40;;;16.85;;
33246;SDS011;19606;50.108;19.804;2022-09-09T01:29:09;26.60;;;17.75;;
33246;SDS011;19606;50.108;19.804;2022-09-09T01:31:37;22.30;;;16.45;;
33246;SDS011;19606;50.108;19.804;2022-09-09T01:34:13;30.85;;;18.45;;
33246;SDS011;19606;50.108;19.804;2022-09-09T01:39:23;21.02;;;14.57;;
33246;SDS011;19606;50.108;19.804;2022-09-09T01:41:49;18.52;;;13.18;;
33246;SDS011;19606;50.108;19.804;2022-09-09T01:44:16;26.27;;;16.80;;
33246;SDS011;19606;50.108;19.804;2022-09-09T01:46:43;25.55;;;17.17;;
33246;SDS011;19606;50.108;19.804;2022-09-09T01:49:09;24.63;;;16.77;;
33246;SDS011;19606;50.108;19.804;2022-09-09T01:51:36;20.70;;;14.20;;
33246;SDS011;19606;50.108;19.804;2022-09-09T01:54:03;19.17;;;13.60;;
33246;SDS011;19606;50.108;19.804;2022-09-09T01:59:59;24.00;;;16.02;;
33246;SDS011;19606;50.108;19.804;2022-09-09T02:04:36;25.65;;;16.83;;
33246;SDS011;19606;50.108;19.804;2022-09-09T02:07:06;27.73;;;17.08;;
33246;SDS011;19606;50.108;19.804;2022-09-09T02:09:33;23.40;;;15.90;;
33246;SDS011;19606;50.108;19.804;2022-09-09T02:12:14;22.02;;;14.95;;
33246;SDS011;19606;50.108;19.804;2022-09-09T02:14:45;23.80;;;16.85;;
33246;SDS011;19606;50.108;19.804;2022-09-09T02:17:13;32.15;;;18.55;;
33246;SDS011;19606;50.108;19.804;2022-09-09T02:19:48;32.38;;;16.90;;
33246;SDS011;19606;50.108;19.804;2022-09-09T02:22:16;23.67;;;16.90;;
33246;SDS011;19606;50.108;19.804;2022-09-09T02:24:43;26.30;;;18.38;;
33246;SDS011;19606;50.108;19.804;2022-09-09T02:27:11;25.40;;;18.38;;
33246;SDS011;19606;50.108;19.804;2022-09-09T02:29:39;30.80;;;20.17;;
33246;SDS011;19606;50.108;19.804;2022-09-09T02:32:12;32.90;;;20.67;;
33246;SDS011;19606;50.108;19.804;2022-09-09T02:34:40;32.28;;;21.67;;
33246;SDS011;19606;50.108;19.804;2022-09-09T02:37:08;34.38;;;21.55;;
33246;SDS011;19606;50.108;19.804;2022-09-09T02:39:37;33.75;;;20.55;;
33246;SDS011;19606;50.108;19.804;2022-09-09T02:42:03;36.22;;;22.45;;
33246;SDS011;19606;50.108;19.804;2022-09-09T02:44:29;34.60;;;23.15;;
33246;SDS011;19606;50.108;19.804;2022-09-09T02:49:47;34.35;;;20.73;;
33246;SDS011;19606;50.108;19.804;2022-09-09T02:52:18;30.60;;;19.50;;
33246;SDS011;19606;50.108;19.804;2022-09-09T02:54:47;34.25;;;22.23;;
33246;SDS011;19606;50.108;19.804;2022-09-09T02:57:17;35.75;;;21.45;;
33246;SDS011;19606;50.108;19.804;2022-09-09T02:59:45;36.22;;;21.92;;
33246;SDS011;19606;50.108;19.804;2022-09-09T03:02:12;36.08;;;21.17;;
33246;SDS011;19606;50.108;19.804;2022-09-09T03:04:38;36.13;;;23.27;;
33246;SDS011;19606;50.108;19.804;2022-09-09T03:07:04;38.13;;;23.35;;
33246;SDS011;19606;50.108;19.804;2022-09-09T03:09:31;33.05;;;21.63;;
33246;SDS011;19606;50.108;19.804;2022-09-09T03:11:58;30.23;;;19.80;;
33246;SDS011;19606;50.108;19.804;2022-09-09T03:14:25;25.35;;;14.52;;
33246;SDS011;19606;50.108;19.804;2022-09-09T03:16:51;27.50;;;16.60;;
33246;SDS011;19606;50.108;19.804;2022-09-09T03:19:18;31.98;;;18.13;;
33246;SDS011;19606;50.108;19.804;2022-09-09T03:21:44;34.03;;;19.80;;
33246;SDS011;19606;50.108;19.804;2022-09-09T03:24:10;28.38;;;14.95;;
33246;SDS011;19606;50.108;19.804;2022-09-09T03:26:37;30.85;;;19.50;;
33246;SDS011;19606;50.108;19.804;2022-09-09T03:29:03;28.45;;;18.67;;
33246;SDS011;19606;50.108;19.804;2022-09-09T03:31:31;31.60;;;19.88;;
33246;SDS011;19606;50.108;19.804;2022-09-09T03:33:57;27.15;;;17.00;;
33246;SDS011;19606;50.108;19.804;2022-09-09T03:36:25;28.08;;;16.90;;
33246;SDS011;19606;50.108;19.804;2022-09-09T03:38:51;24.13;;;15.93;;
33246;SDS011;19606;50.108;19.804;2022-09-09T03:41:19;32.78;;;17.38;;
33246;SDS011;19606;50.108;19.804;2022-09-09T03:43:52;28.65;;;17.60;;
33246;SDS011;19606;50.108;19.804;2022-09-09T03:46:19;32.77;;;18.10;;
33246;SDS011;19606;50.108;19.804;2022-09-09T03:48:45;27.92;;;17.85;;
33246;SDS011;19606;50.108;19.804;2022-09-09T03:51:11;29.63;;;18.23;;
33246;SDS011;19606;50.108;19.804;2022-09-09T03:53:37;20.88;;;12.27;;
33246;SDS011;19606;50.108;19.804;2022-09-09T03:56:13;28.50;;;17.02;;
33246;SDS011;19606;50.108;19.804;2022-09-09T03:58:39;25.85;;;15.43;;
33246;SDS011;19606;50.108;19.804;2022-09-09T04:01:07;31.23;;;15.93;;
33246;SDS011;19606;50.108;19.804;2022-09-09T04:03:38;28.13;;;16.90;;
33246;SDS011;19606;50.108;19.804;2022-09-09T04:06:04;32.83;;;19.25;;
33246;SDS011;19606;50.108;19.804;2022-09-09T04:08:31;28.45;;;18.25;;
33246;SDS011;19606;50.108;19.804;2022-09-09T04:10:58;30.25;;;19.20;;
33246;SDS011;19606;50.108;19.804;2022-09-09T04:13:25;33.97;;;19.00;;
33246;SDS011;19606;50.108;19.804;2022-09-09T04:15:53;25.88;;;17.67;;
33246;SDS011;19606;50.108;19.804;2022-09-09T04:18:19;28.98;;;18.52;;
33246;SDS011;19606;50.108;19.804;2022-09-09T04:20:46;29.85;;;19.38;;
33246;SDS011;19606;50.108;19.804;2022-09-09T04:23:12;33.95;;;20.90;;
33246;SDS011;19606;50.108;19.804;2022-09-09T04:25:43;32.22;;;20.35;;
33246;SDS011;19606;50.108;19.804;2022-09-09T04:28:09;36.70;;;20.95;;
33246;SDS011;19606;50.108;19.804;2022-09-09T04:30:35;32.13;;;19.85;;
33246;SDS011;19606;50.108;19.804;2022-09-09T04:33:01;31.63;;;18.73;;
33246;SDS011;19606;50.108;19.804;2022-09-09T04:35:27;34.45;;;20.25;;
33246;SDS011;19606;50.108;19.804;2022-09-09T04:37:53;34.83;;;21.17;;
33246;SDS011;19606;50.108;19.804;2022-09-09T04:40:20;29.85;;;18.92;;
33246;SDS011;19606;50.108;19.804;2022-09-09T04:42:47;29.80;;;18.95;;
33246;SDS011;19606;50.108;19.804;2022-09-09T04:45:14;30.58;;;15.82;;
33246;SDS011;19606;50.108;19.804;2022-09-09T04:47:41;24.65;;;16.52;;
33246;SDS011;19606;50.108;19.804;2022-09-09T04:50:07;32.75;;;19.15;;
33246;SDS011;19606;50.108;19.804;2022-09-09T04:52:34;32.05;;;18.10;;
33246;SDS011;19606;50.108;19.804;2022-09-09T04:55:00;28.05;;;18.27;;
33246;SDS011;19606;50.108;19.804;2022-09-09T04:57:27;27.98;;;17.13;;
33246;SDS011;19606;50.108;19.804;2022-09-09T04:59:53;29.40;;;14.55;;
33246;SDS011;19606;50.108;19.804;2022-09-09T05:02:19;30.10;;;19.10;;
33246;SDS011;19606;50.108;19.804;2022-09-09T05:04:45;32.55;;;21.58;;
33246;SDS011;19606;50.108;19.804;2022-09-09T05:07:12;30.45;;;19.90;;
33246;SDS011;19606;50.108;19.804;2022-09-09T05:09:38;30.52;;;16.80;;
33246;SDS011;19606;50.108;19.804;2022-09-09T05:12:05;34.63;;;20.52;;
33246;SDS011;19606;50.108;19.804;2022-09-09T05:14:31;32.42;;;19.83;;
33246;SDS011;19606;50.108;19.804;2022-09-09T05:16:57;28.20;;;17.90;;
33246;SDS011;19606;50.108;19.804;2022-09-09T05:19:23;31.80;;;19.67;;
33246;SDS011;19606;50.108;19.804;2022-09-09T05:21:49;32.83;;;19.33;;
33246;SDS011;19606;50.108;19.804;2022-09-09T05:24:15;33.90;;;20.70;;
33246;SDS011;19606;50.108;19.804;2022-09-09T05:26:42;41.08;;;21.77;;
33246;SDS011;19606;50.108;19.804;2022-09-09T05:29:09;34.92;;;20.67;;
33246;SDS011;19606;50.108;19.804;2022-09-09T05:31:35;40.50;;;23.13;;
33246;SDS011;19606;50.108;19.804;2022-09-09T05:34:01;40.03;;;22.42;;
33246;SDS011;19606;50.108;19.804;2022-09-09T05:36:27;33.08;;;21.65;;
33246;SDS011;19606;50.108;19.804;2022-09-09T05:38:53;31.90;;;19.38;;
33246;SDS011;19606;50.108;19.804;2022-09-09T05:41:19;28.58;;;19.13;;
33246;SDS011;19606;50.108;19.804;2022-09-09T05:43:47;30.88;;;20.90;;
33246;SDS011;19606;50.108;19.804;2022-09-09T05:46:16;30.95;;;20.65;;
33246;SDS011;19606;50.108;19.804;2022-09-09T05:48:43;30.10;;;20.05;;
33246;SDS011;19606;50.108;19.804;2022-09-09T05:51:12;27.75;;;19.38;;
33246;SDS011;19606;50.108;19.804;2022-09-09T05:53:40;32.47;;;20.88;;
33246;SDS011;19606;50.108;19.804;2022-09-09T05:56:26;34.15;;;20.65;;
33246;SDS011;19606;50.108;19.804;2022-09-09T05:58:52;29.23;;;20.27;;
33246;SDS011;19606;50.108;19.804;2022-09-09T06:01:20;33.85;;;23.88;;
33246;SDS011;19606;50.108;19.804;2022-09-09T06:03:47;34.85;;;22.52;;
33246;SDS011;19606;50.108;19.804;2022-09-09T06:06:14;32.38;;;23.10;;
33246;SDS011;19606;50.108;19.804;2022-09-09T06:08:42;33.25;;;22.90;;
33246;SDS011;19606;50.108;19.804;2022-09-09T06:11:28;34.17;;;21.98;;
33246;SDS011;19606;50.108;19.804;2022-09-09T06:13:57;32.63;;;21.98;;
33246;SDS011;19606;50.108;19.804;2022-09-09T06:16:25;30.90;;;22.73;;
33246;SDS011;19606;50.108;19.804;2022-09-09T06:18:51;31.42;;;21.63;;
33246;SDS011;19606;50.108;19.804;2022-09-09T06:21:29;28.45;;;19.60;;
33246;SDS011;19606;50.108;19.804;2022-09-09T06:23:56;29.35;;;20.10;;
33246;SDS011;19606;50.108;19.804;2022-09-09T06:26:23;25.50;;;17.00;;
33246;SDS011;19606;50.108;19.804;2022-09-09T06:28:50;26.40;;;18.58;;
33246;SDS011;19606;50.108;19.804;2022-09-09T06:31:18;27.02;;;19.27;;
33246;SDS011;19606;50.108;19.804;2022-09-09T06:33:48;24.90;;;18.77;;
33246;SDS011;19606;50.108;19.804;2022-09-09T06:36:16;25.80;;;17.20;;
33246;SDS011;19606;50.108;19.804;2022-09-09T06:38:43;23.92;;;16.58;;
33246;SDS011;19606;50.108;19.804;2022-09-09T06:41:10;23.50;;;16.67;;
33246;SDS011;19606;50.108;19.804;2022-09-09T06:43:37;23.15;;;16.70;;
33246;SDS011;19606;50.108;19.804;2022-09-09T06:48:29;22.65;;;15.27;;
33246;SDS011;19606;50.108;19.804;2022-09-09T06:51:30;23.98;;;16.45;;
33246;SDS011;19606;50.108;19.804;2022-09-09T06:53:52;19.77;;;13.88;;
33246;SDS011;19606;50.108;19.804;2022-09-09T06:58:46;19.58;;;13.13;;
33246;SDS011;19606;50.108;19.804;2022-09-09T07:01:17;15.77;;;10.95;;
33246;SDS011;19606;50.108;19.804;2022-09-09T07:03:47;18.38;;;13.48;;
33246;SDS011;19606;50.108;19.804;2022-09-09T07:06:19;17.17;;;13.25;;
33246;SDS011;19606;50.108;19.804;2022-09-09T07:08:52;13.93;;;10.65;;
33246;SDS011;19606;50.108;19.804;2022-09-09T07:11:23;11.45;;;10.25;;
33246;SDS011;19606;50.108;19.804;2022-09-09T07:13:51;17.88;;;13.00;;
33246;SDS011;19606;50.108;19.804;2022-09-09T07:16:18;13.00;;;10.68;;
33246;SDS011;19606;50.108;19.804;2022-09-09T07:18:45;13.52;;;8.55;;
33246;SDS011;19606;50.108;19.804;2022-09-09T07:21:12;13.35;;;10.55;;
33246;SDS011;19606;50.108;19.804;2022-09-09T07:23:39;11.23;;;9.98;;
33246;SDS011;19606;50.108;19.804;2022-09-09T07:26:09;13.40;;;10.20;;
33246;SDS011;19606;50.108;19.804;2022-09-09T07:28:35;13.60;;;10.57;;
33246;SDS011;19606;50.108;19.804;2022-09-09T07:31:02;12.82;;;10.13;;
33246;SDS011;19606;50.108;19.804;2022-09-09T07:33:28;13.70;;;10.18;;
33246;SDS011;19606;50.108;19.804;2022-09-09T07:36:01;11.88;;;9.95;;
33246;SDS011;19606;50.108;19.804;2022-09-09T07:38:28;12.75;;;8.43;;
33246;SDS011;19606;50.108;19.804;2022-09-09T07:41:02;10.07;;;9.05;;
33246;SDS011;19606;50.108;19.804;2022-09-09T07:43:28;12.63;;;9.98;;
33246;SDS011;19606;50.108;19.804;2022-09-09T07:45:57;10.27;;;8.45;;
33246;SDS011;19606;50.108;19.804;2022-09-09T07:48:23;8.98;;;7.88;;
33246;SDS011;19606;50.108;19.804;2022-09-09T07:50:50;8.57;;;6.72;;
33246;SDS011;19606;50.108;19.804;2022-09-09T07:53:16;7.88;;;5.45;;
33246;SDS011;19606;50.108;19.804;2022-09-09T07:55:44;7.88;;;6.38;;
33246;SDS011;19606;50.108;19.804;2022-09-09T07:58:11;8.35;;;5.60;;
33246;SDS011;19606;50.108;19.804;2022-09-09T08:00:37;8.10;;;6.32;;
33246;SDS011;19606;50.108;19.804;2022-09-09T08:03:06;6.60;;;5.53;;
33246;SDS011;19606;50.108;19.804;2022-09-09T08:05:32;12.73;;;5.38;;
33246;SDS011;19606;50.108;19.804;2022-09-09T08:07:58;8.48;;;5.65;;
33246;SDS011;19606;50.108;19.804;2022-09-09T08:10:25;5.95;;;4.88;;
33246;SDS011;19606;50.108;19.804;2022-09-09T08:12:51;8.88;;;5.63;;
33246;SDS011;19606;50.108;19.804;2022-09-09T08:15:17;4.75;;;4.25;;
33246;SDS011;19606;50.108;19.804;2022-09-09T08:17:43;6.53;;;4.45;;
33246;SDS011;19606;50.108;19.804;2022-09-09T08:20:09;8.15;;;4.82;;
33246;SDS011;19606;50.108;19.804;2022-09-09T08:22:36;5.88;;;5.28;;
33246;SDS011;19606;50.108;19.804;2022-09-09T08:25:02;5.00;;;4.00;;
33246;SDS011;19606;50.108;19.804;2022-09-09T08:27:31;8.57;;;4.28;;
33246;SDS011;19606;50.108;19.804;2022-09-09T08:29:57;5.35;;;4.15;;
33246;SDS011;19606;50.108;19.804;2022-09-09T08:32:24;5.47;;;3.85;;
33246;SDS011;19606;50.108;19.804;2022-09-09T08:34:51;3.95;;;3.60;;
33246;SDS011;19606;50.108;19.804;2022-09-09T08:37:17;4.80;;;3.72;;
33246;SDS011;19606;50.108;19.804;2022-09-09T08:39:44;4.55;;;3.30;;
33246;SDS011;19606;50.108;19.804;2022-09-09T08:42:18;7.38;;;3.80;;
33246;SDS011;19606;50.108;19.804;2022-09-09T08:55:59;8.07;;;3.08;;
33246;SDS011;19606;50.108;19.804;2022-09-09T08:58:31;6.30;;;3.30;;
33246;SDS011;19606;50.108;19.804;2022-09-09T09:01:01;7.78;;;3.10;;
33246;SDS011;19606;50.108;19.804;2022-09-09T09:03:41;5.90;;;3.05;;
33246;SDS011;19606;50.108;19.804;2022-09-09T09:06:26;8.13;;;3.03;;
33246;SDS011;19606;50.108;19.804;2022-09-09T09:09:02;4.57;;;2.90;;
33246;SDS011;19606;50.108;19.804;2022-09-09T09:11:37;4.40;;;2.75;;
33246;SDS011;19606;50.108;19.804;2022-09-09T09:14:25;4.57;;;2.78;;
33246;SDS011;19606;50.108;19.804;2022-09-09T09:16:53;2.92;;;2.33;;
33246;SDS011;19606;50.108;19.804;2022-09-09T09:19:24;3.05;;;2.67;;
33246;SDS011;19606;50.108;19.804;2022-09-09T09:27:31;3.83;;;2.60;;
33246;SDS011;19606;50.108;19.804;2022-09-09T09:29:59;3.03;;;2.42;;
33246;SDS011;19606;50.108;19.804;2022-09-09T09:32:25;4.28;;;2.60;;
33246;SDS011;19606;50.108;19.804;2022-09-09T09:34:55;3.38;;;2.65;;
33246;SDS011;19606;50.108;19.804;2022-09-09T09:37:31;2.97;;;2.35;;
33246;SDS011;19606;50.108;19.804;2022-09-09T09:40:12;3.63;;;2.38;;
33246;SDS011;19606;50.108;19.804;2022-09-09T09:42:47;4.20;;;2.50;;
33246;SDS011;19606;50.108;19.804;2022-09-09T09:45:41;3.08;;;2.40;;
33246;SDS011;19606;50.108;19.804;2022-09-09T09:48:09;2.88;;;2.35;;
33246;SDS011;19606;50.108;19.804;2022-09-09T09:50:39;3.55;;;2.53;;
33246;SDS011;19606;50.108;19.804;2022-09-09T09:55:52;2.40;;;2.20;;
33246;SDS011;19606;50.108;19.804;2022-09-09T09:58:19;3.63;;;2.10;;
33246;SDS011;19606;50.108;19.804;2022-09-09T10:00:49;3.28;;;2.22;;
33246;SDS011;19606;50.108;19.804;2022-09-09T10:05:44;1.98;;;1.80;;
33246;SDS011;19606;50.108;19.804;2022-09-09T10:08:11;4.22;;;2.08;;
33246;SDS011;19606;50.108;19.804;2022-09-09T10:13:27;2.63;;;1.92;;
33246;SDS011;19606;50.108;19.804;2022-09-09T10:16:09;3.70;;;1.60;;
33246;SDS011;19606;50.108;19.804;2022-09-09T10:26:35;1.50;;;1.40;;
33246;SDS011;19606;50.108;19.804;2022-09-09T10:36:46;1.70;;;1.60;;
33246;SDS011;19606;50.108;19.804;2022-09-09T10:57:27;2.10;;;1.45;;
33246;SDS011;19606;50.108;19.804;2022-09-09T10:59:56;3.60;;;1.95;;
33246;SDS011;19606;50.108;19.804;2022-09-09T11:02:28;2.25;;;1.23;;
33246;SDS011;19606;50.108;19.804;2022-09-09T11:05:00;3.60;;;1.42;;
33246;SDS011;19606;50.108;19.804;2022-09-09T11:09:59;1.88;;;1.50;;
33246;SDS011;19606;50.108;19.804;2022-09-09T11:12:26;2.30;;;1.52;;
33246;SDS011;19606;50.108;19.804;2022-09-09T11:14:55;2.65;;;1.30;;
33246;SDS011;19606;50.108;19.804;2022-09-09T11:17:26;2.60;;;1.27;;
33246;SDS011;19606;50.108;19.804;2022-09-09T11:26:04;4.68;;;1.30;;
33246;SDS011;19606;50.108;19.804;2022-09-09T11:36:24;2.70;;;1.00;;
33246;SDS011;19606;50.108;19.804;2022-09-09T11:38:57;1.33;;;0.90;;
33246;SDS011;19606;50.108;19.804;2022-09-09T11:41:32;1.85;;;1.20;;
33246;SDS011;19606;50.108;19.804;2022-09-09T11:47:03;1.48;;;1.38;;
33246;SDS011;19606;50.108;19.804;2022-09-09T11:49:42;4.13;;;1.63;;
33246;SDS011;19606;50.108;19.804;2022-09-09T11:54:47;1.17;;;1.10;;
33246;SDS011;19606;50.108;19.804;2022-09-09T11:57:24;1.98;;;1.10;;
33246;SDS011;19606;50.108;19.804;2022-09-09T12:03:03;1.20;;;1.05;;
33246;SDS011;19606;50.108;19.804;2022-09-09T12:08:35;0.95;;;0.95;;
33246;SDS011;19606;50.108;19.804;2022-09-09T12:14:18;2.67;;;0.82;;
33246;SDS011;19606;50.108;19.804;2022-09-09T12:16:44;1.08;;;0.90;;
33246;SDS011;19606;50.108;19.804;2022-09-09T12:19:21;1.55;;;0.95;;
33246;SDS011;19606;50.108;19.804;2022-09-09T12:24:34;2.88;;;1.30;;
33246;SDS011;19606;50.108;19.804;2022-09-09T12:27:15;3.90;;;1.15;;
33246;SDS011;19606;50.108;19.804;2022-09-09T12:32:15;2.42;;;1.50;;
33246;SDS011;19606;50.108;19.804;2022-09-09T12:34:47;1.40;;;1.30;;
33246;SDS011;19606;50.108;19.804;2022-09-09T12:40:20;1.08;;;1.00;;
33246;SDS011;19606;50.108;19.804;2022-09-09T12:42:46;5.32;;;1.40;;
33246;SDS011;19606;50.108;19.804;2022-09-09T12:50:21;1.27;;;1.17;;
33246;SDS011;19606;50.108;19.804;2022-09-09T12:52:47;2.15;;;0.85;;
33246;SDS011;19606;50.108;19.804;2022-09-09T12:55:16;1.60;;;0.90;;
33246;SDS011;19606;50.108;19.804;2022-09-09T12:57:43;2.63;;;1.13;;
33246;SDS011;19606;50.108;19.804;2022-09-09T13:00:17;2.00;;;1.30;;
33246;SDS011;19606;50.108;19.804;2022-09-09T13:02:50;2.95;;;1.20;;
33246;SDS011;19606;50.108;19.804;2022-09-09T13:05:26;3.22;;;1.35;;
33246;SDS011;19606;50.108;19.804;2022-09-09T13:08:00;2.90;;;1.17;;
33246;SDS011;19606;50.108;19.804;2022-09-09T13:10:28;1.52;;;1.30;;
33246;SDS011;19606;50.108;19.804;2022-09-09T13:12:55;1.20;;;1.10;;
33246;SDS011;19606;50.108;19.804;2022-09-09T13:15:23;3.08;;;0.95;;
33246;SDS011;19606;50.108;19.804;2022-09-09T13:17:55;2.15;;;1.35;;
33246;SDS011;19606;50.108;19.804;2022-09-09T13:22:48;2.40;;;1.23;;
33246;SDS011;19606;50.108;19.804;2022-09-09T13:25:51;3.42;;;1.50;;
33246;SDS011;19606;50.108;19.804;2022-09-09T13:28:18;5.32;;;1.42;;
33246;SDS011;19606;50.108;19.804;2022-09-09T13:30:54;1.80;;;1.23;;
33246;SDS011;19606;50.108;19.804;2022-09-09T13:33:35;1.55;;;1.40;;
33246;SDS011;19606;50.108;19.804;2022-09-09T13:36:06;3.03;;;1.48;;
33246;SDS011;19606;50.108;19.804;2022-09-09T13:38:33;1.58;;;1.48;;
33246;SDS011;19606;50.108;19.804;2022-09-09T13:41:02;4.15;;;1.63;;
33246;SDS011;19606;50.108;19.804;2022-09-09T13:43:45;2.97;;;1.23;;
33246;SDS011;19606;50.108;19.804;2022-09-09T13:49:00;3.28;;;1.38;;
33246;SDS011;19606;50.108;19.804;2022-09-09T13:51:29;2.10;;;1.33;;
33246;SDS011;19606;50.108;19.804;2022-09-09T13:53:56;1.40;;;1.27;;
33246;SDS011;19606;50.108;19.804;2022-09-09T13:56:22;4.25;;;1.45;;
33246;SDS011;19606;50.108;19.804;2022-09-09T13:58:48;2.47;;;1.30;;
33246;SDS011;19606;50.108;19.804;2022-09-09T14:01:14;3.42;;;1.35;;
33246;SDS011;19606;50.108;19.804;2022-09-09T14:03:41;2.60;;;1.60;;
33246;SDS011;19606;50.108;19.804;2022-09-09T14:06:08;3.08;;;1.20;;
33246;SDS011;19606;50.108;19.804;2022-09-09T14:08:34;1.55;;;1.05;;
33246;SDS011;19606;50.108;19.804;2022-09-09T14:11:04;3.53;;;1.50;;
33246;SDS011;19606;50.108;19.804;2022-09-09T14:13:30;3.92;;;1.67;;
33246;SDS011;19606;50.108;19.804;2022-09-09T14:15:56;1.70;;;1.50;;
33246;SDS011;19606;50.108;19.804;2022-09-09T14:18:22;2.75;;;2.03;;
33246;SDS011;19606;50.108;19.804;2022-09-09T14:20:50;3.20;;;1.67;;
33246;SDS011;19606;50.108;19.804;2022-09-09T14:23:16;1.88;;;1.42;;
33246;SDS011;19606;50.108;19.804;2022-09-09T14:25:43;1.42;;;1.33;;
33246;SDS011;19606;50.108;19.804;2022-09-09T14:28:10;1.65;;;1.55;;
33246;SDS011;19606;50.108;19.804;2022-09-09T14:30:38;3.35;;;1.48;;
33246;SDS011;19606;50.108;19.804;2022-09-09T14:33:04;2.03;;;1.70;;
33246;SDS011;19606;50.108;19.804;2022-09-09T14:35:31;1.92;;;1.45;;
33246;SDS011;19606;50.108;19.804;2022-09-09T14:37:58;3.95;;;2.10;;
33246;SDS011;19606;50.108;19.804;2022-09-09T14:40:26;1.80;;;1.65;;
33246;SDS011;19606;50.108;19.804;2022-09-09T14:42:52;1.77;;;1.67;;
33246;SDS011;19606;50.108;19.804;2022-09-09T14:45:18;2.60;;;1.83;;
33246;SDS011;19606;50.108;19.804;2022-09-09T14:47:46;2.53;;;1.70;;
33246;SDS011;19606;50.108;19.804;2022-09-09T14:50:12;2.80;;;1.70;;
33246;SDS011;19606;50.108;19.804;2022-09-09T14:52:38;4.10;;;2.00;;
33246;SDS011;19606;50.108;19.804;2022-09-09T14:55:05;2.33;;;1.95;;
33246;SDS011;19606;50.108;19.804;2022-09-09T14:57:31;3.47;;;1.73;;
33246;SDS011;19606;50.108;19.804;2022-09-09T14:59:57;3.13;;;1.75;;
33246;SDS011;19606;50.108;19.804;2022-09-09T15:02:23;3.75;;;3.22;;
33246;SDS011;19606;50.108;19.804;2022-09-09T15:04:49;2.38;;;2.17;;
33246;SDS011;19606;50.108;19.804;2022-09-09T15:07:16;5.07;;;2.38;;
33246;SDS011;19606;50.108;19.804;2022-09-09T15:09:44;2.33;;;1.65;;
33246;SDS011;19606;50.108;19.804;2022-09-09T15:12:10;4.20;;;1.80;;
33246;SDS011;19606;50.108;19.804;2022-09-09T15:14:36;4.38;;;1.83;;
33246;SDS011;19606;50.108;19.804;2022-09-09T15:17:03;3.67;;;1.70;;
33246;SDS011;19606;50.108;19.804;2022-09-09T15:19:29;3.33;;;1.75;;
33246;SDS011;19606;50.108;19.804;2022-09-09T15:21:55;1.83;;;1.73;;
33246;SDS011;19606;50.108;19.804;2022-09-09T15:24:21;2.17;;;2.05;;
33246;SDS011;19606;50.108;19.804;2022-09-09T15:26:47;4.93;;;1.90;;
33246;SDS011;19606;50.108;19.804;2022-09-09T15:29:13;3.53;;;2.03;;
33246;SDS011;19606;50.108;19.804;2022-09-09T15:31:40;1.83;;;1.73;;
33246;SDS011;19606;50.108;19.804;2022-09-09T15:34:07;5.15;;;2.20;;
33246;SDS011;19606;50.108;19.804;2022-09-09T15:36:34;3.00;;;1.83;;
33246;SDS011;19606;50.108;19.804;2022-09-09T15:39:01;2.65;;;1.83;;
33246;SDS011;19606;50.108;19.804;2022-09-09T15:41:28;4.13;;;2.63;;
33246;SDS011;19606;50.108;19.804;2022-09-09T15:43:55;4.00;;;3.15;;
33246;SDS011;19606;50.108;19.804;2022-09-09T15:51:34;4.60;;;2.17;;
33246;SDS011;19606;50.108;19.804;2022-09-09T15:54:00;3.30;;;2.22;;
33246;SDS011;19606;50.108;19.804;2022-09-09T15:56:27;3.45;;;2.78;;
33246;SDS011;19606;50.108;19.804;2022-09-09T15:58:56;2.87;;;2.60;;
33246;SDS011;19606;50.108;19.804;2022-09-09T16:01:24;6.20;;;2.85;;
33246;SDS011;19606;50.108;19.804;2022-09-09T16:03:50;4.13;;;2.92;;
33246;SDS011;19606;50.108;19.804;2022-09-09T16:06:17;3.80;;;2.22;;
33246;SDS011;19606;50.108;19.804;2022-09-09T16:08:44;3.08;;;2.42;;
33246;SDS011;19606;50.108;19.804;2022-09-09T16:11:21;2.70;;;2.45;;
33246;SDS011;19606;50.108;19.804;2022-09-09T16:13:48;4.18;;;2.53;;
33246;SDS011;19606;50.108;19.804;2022-09-09T16:16:14;6.63;;;3.03;;
33246;SDS011;19606;50.108;19.804;2022-09-09T16:18:41;5.03;;;2.78;;
33246;SDS011;19606;50.108;19.804;2022-09-09T16:21:08;4.43;;;2.58;;
33246;SDS011;19606;50.108;19.804;2022-09-09T16:23:38;4.32;;;3.05;;
33246;SDS011;19606;50.108;19.804;2022-09-09T16:26:04;4.45;;;3.00;;
33246;SDS011;19606;50.108;19.804;2022-09-09T16:28:30;6.82;;;3.70;;
33246;SDS011;19606;50.108;19.804;2022-09-09T16:30:57;6.82;;;3.03;;
33246;SDS011;19606;50.108;19.804;2022-09-09T16:33:23;9.43;;;3.60;;
33246;SDS011;19606;50.108;19.804;2022-09-09T16:35:51;35.10;;;11.10;;
33246;SDS011;19606;50.108;19.804;2022-09-09T16:38:17;13.18;;;5.20;;
33246;SDS011;19606;50.108;19.804;2022-09-09T16:40:43;11.52;;;5.07;;
33246;SDS011;19606;50.108;19.804;2022-09-09T16:43:09;13.13;;;8.25;;
33246;SDS011;19606;50.108;19.804;2022-09-09T16:45:43;14.10;;;8.02;;
33246;SDS011;19606;50.108;19.804;2022-09-09T16:48:10;5.82;;;5.00;;
33246;SDS011;19606;50.108;19.804;2022-09-09T16:50:36;7.28;;;4.22;;
33246;SDS011;19606;50.108;19.804;2022-09-09T16:53:02;6.72;;;5.47;;
33246;SDS011;19606;50.108;19.804;2022-09-09T16:55:31;5.20;;;4.20;;
33246;SDS011;19606;50.108;19.804;2022-09-09T16:57:57;5.55;;;3.95;;
33246;SDS011;19606;50.108;19.804;2022-09-09T17:00:23;6.35;;;5.70;;
33246;SDS011;19606;50.108;19.804;2022-09-09T17:02:49;14.70;;;10.77;;
33246;SDS011;19606;50.108;19.804;2022-09-09T17:05:15;17.05;;;11.85;;
33246;SDS011;19606;50.108;19.804;2022-09-09T17:07:41;12.13;;;10.93;;
33246;SDS011;19606;50.108;19.804;2022-09-09T17:10:09;13.70;;;8.95;;
33246;SDS011;19606;50.108;19.804;2022-09-09T17:12:35;11.63;;;7.85;;
33246;SDS011;19606;50.108;19.804;2022-09-09T17:15:01;10.80;;;7.70;;
33246;SDS011;19606;50.108;19.804;2022-09-09T17:17:28;9.02;;;6.80;;